Terminal Aerodrome Forecast
Issued by NWS Cleveland, OH

Home | Current Version | Previous Version | Text Only | Print | Product List | Glossary Off
Versions: 1 2 3 4 5 6 7 8 9 10 11 12 13 14 15 16 17 18 19

000
FTUS41 KCLE 221133
TAFMFD
TAF
KMFD 221133Z 2212/2312 16004KT 5SM -SHRA VCTS BKN040CB OVC080
     FM221500 20007KT P6SM SCT030 OVC040
     FM221800 22010KT P6SM VCTS SCT030CB BKN045
     FM222100 24010KT P6SM SCT030 BKN060
     FM230800 22010KT 6SM BR BKN030
     FM231100 25004KT 6SM BR SCT007 OVC012=

USA.gov is the U.S. government's official web portal to all federal, state and local government web resources and services.